Fehn Calais — V2CI3 — position and weather

sailwx.info

Track history (hours):
 
Tides and Currents Weather Stations Pressure Air Temp Water Temp Dewpoint Dewpoint Depression Visibility Wind Speed Wind Dir Waves Ship Positions

Fehn Calais

Last reported at 2014-Jul-23 10:20 UTC. Time now 2014-Jul-28 20:43 UTC.
Position N 36°20' W 003°09'.

Length 83 m; draft 4.1 m.

Type: Ship. MMSI: 305009000.

Date/timePositionNaut miles runAvg speedWind from/ knotsBaromVisibWave heightAir tempDewpointWater temp
2014-Jul-23 10:20N 36°20' W 003°09'36 8.8
2014-Jul-23 06:16N 36°24' W 002°25'8 8.4
2014-Jul-23 05:17N 36°25' W 002°15'9 8.2
2014-Jul-23 04:11N 36°26' W 002°04'9 8.5
2014-Jul-23 03:10N 36°27' W 001°54'40 8.6
2014-Jul-22 22:30N 36°33' W 001°04'9 8.7
2014-Jul-22 21:28N 36°35' W 000°53'8 8.3
2014-Jul-22 20:33N 36°36' W 000°44'17 8.5
2014-Jul-22 18:30N 36°38' W 000°22'8 8.6
2014-Jul-22 17:32N 36°39' W 000°12'8 8.5
2014-Jul-22 16:33N 36°40' W 000°01'8 8.2
2014-Jul-22 15:33N 36°41' E 000°09'8 7.8
2014-Jul-22 14:33N 36°42' E 000°18'7 7.5
2014-Jul-22 13:33N 36°43' E 000°28'8 7.6
2014-Jul-22 12:33N 36°44' E 000°37'8 7.8
2014-Jul-22 11:33N 36°45' E 000°47'8 7.9
2014-Jul-22 10:32N 36°47' E 000°57'9 8.6
2014-Jul-22 09:26N 36°47' E 001°08'17 7.9
2014-Jul-22 07:15N 36°50' E 001°30'7 7.5
2014-Jul-22 06:18N 36°51' E 001°38'7 7.4
2014-Jul-22 05:20N 36°52' E 001°47'22 7.7
2014-Jul-22 02:29N 36°55' E 002°15'8 7.3
2014-Jul-22 01:23N 36°56' E 002°25'6 7.3
2014-Jul-22 00:33N 36°57' E 002°32'7 7.1
2014-Jul-21 23:32N 36°58' E 002°41'7 6.9
2014-Jul-21 22:29N 36°59' E 002°50'16 7.3
2014-Jul-21 20:15N 37°01' E 003°10'  
2014-Jul-19 16:13N 37°16' E 011°39'6 8.6
2014-Jul-19 15:32N 37°14' E 011°46'8 8.6
2014-Jul-19 14:33N 37°09' E 011°55'26 8.3
2014-Jul-19 11:28N 37°00' E 012°25'39 7.6
2014-Jul-19 06:23N 36°49' E 013°11'7 8.2
2014-Jul-19 05:33N 36°47' E 013°19'8 8.5
2014-Jul-19 04:33N 36°44' E 013°29'10 8.7
2014-Jul-19 03:25N 36°41' E 013°41'7 8.7
2014-Jul-19 02:33N 36°39' E 013°50'8 8.4
2014-Jul-19 01:33N 36°36' E 014°00'8 8.2
2014-Jul-19 00:33N 36°34' E 014°10'8 8.1
2014-Jul-18 23:33N 36°31' E 014°19'8 8.1
2014-Jul-18 22:32N 36°30' E 014°29'8 8.1
2014-Jul-18 21:33N 36°28' E 014°39'7 7.5
2014-Jul-18 20:33N 36°24' E 014°47'8 7.9
2014-Jul-18 19:30N 36°24' E 014°58'8 8.3
2014-Jul-18 18:33N 36°24' E 015°07'  
2014-Jul-16 09:15N 37°42' E 023°41'6 9.3
2014-Jul-16 08:33N 37°48' E 023°37'6 5.8
2014-Jul-16 07:33N 37°52' E 023°32'0 0.1
2014-Jul-16 06:33N 37°52' E 023°32'0 0.0
2014-Jul-16 05:33N 37°52' E 023°32'0 0.0
2014-Jul-16 04:33N 37°52' E 023°32'0 0.0
2014-Jul-16 03:33N 37°52' E 023°32'0 0.0
2014-Jul-16 02:33N 37°52' E 023°32'0 0.0
2014-Jul-16 01:33N 37°52' E 023°32'0 0.0
2014-Jul-16 00:33N 37°52' E 023°32'0 0.0
2014-Jul-15 23:33N 37°52' E 023°32'0 0.0
2014-Jul-15 22:33N 37°52' E 023°32'0 0.1
2014-Jul-15 21:33N 37°52' E 023°32'6 5.6
2014-Jul-15 20:33N 37°51' E 023°39'9 8.5
2014-Jul-15 19:33N 37°43' E 023°44'  
Track history (hours):
 
Tides and Currents Weather Stations Pressure Air Temp Water Temp Dewpoint Dewpoint Depression Visibility Wind Speed Wind Dir Waves Ship Positions

Fehn Calais

Last reported at 2014-Jul-23 10:20 UTC. Time now 2014-Jul-28 20:43 UTC.
Position N 36°20' W 003°09'.

Length 83 m; draft 4.1 m.

Type: Ship. MMSI: 305009000.

Date/timePositionNaut miles runAvg speedWind from/ knotsBaromVisibWave heightAir tempDewpointWater temp
2014-Jul-23 10:20N 36°20' W 003°09'36 8.8
2014-Jul-23 06:16N 36°24' W 002°25'8 8.4
2014-Jul-23 05:17N 36°25' W 002°15'9 8.2
2014-Jul-23 04:11N 36°26' W 002°04'9 8.5
2014-Jul-23 03:10N 36°27' W 001°54'40 8.6
2014-Jul-22 22:30N 36°33' W 001°04'9 8.7
2014-Jul-22 21:28N 36°35' W 000°53'8 8.3
2014-Jul-22 20:33N 36°36' W 000°44'17 8.5
2014-Jul-22 18:30N 36°38' W 000°22'8 8.6
2014-Jul-22 17:32N 36°39' W 000°12'8 8.5
2014-Jul-22 16:33N 36°40' W 000°01'8 8.2
2014-Jul-22 15:33N 36°41' E 000°09'8 7.8
2014-Jul-22 14:33N 36°42' E 000°18'7 7.5
2014-Jul-22 13:33N 36°43' E 000°28'8 7.6
2014-Jul-22 12:33N 36°44' E 000°37'8 7.8
2014-Jul-22 11:33N 36°45' E 000°47'8 7.9
2014-Jul-22 10:32N 36°47' E 000°57'9 8.6
2014-Jul-22 09:26N 36°47' E 001°08'17 7.9
2014-Jul-22 07:15N 36°50' E 001°30'7 7.5
2014-Jul-22 06:18N 36°51' E 001°38'7 7.4
2014-Jul-22 05:20N 36°52' E 001°47'22 7.7
2014-Jul-22 02:29N 36°55' E 002°15'8 7.3
2014-Jul-22 01:23N 36°56' E 002°25'6 7.3
2014-Jul-22 00:33N 36°57' E 002°32'7 7.1
2014-Jul-21 23:32N 36°58' E 002°41'7 6.9
2014-Jul-21 22:29N 36°59' E 002°50'16 7.3
2014-Jul-21 20:15N 37°01' E 003°10'  
2014-Jul-19 16:13N 37°16' E 011°39'6 8.6
2014-Jul-19 15:32N 37°14' E 011°46'8 8.6
2014-Jul-19 14:33N 37°09' E 011°55'26 8.3
2014-Jul-19 11:28N 37°00' E 012°25'39 7.6
2014-Jul-19 06:23N 36°49' E 013°11'7 8.2
2014-Jul-19 05:33N 36°47' E 013°19'8 8.5
2014-Jul-19 04:33N 36°44' E 013°29'10 8.7
2014-Jul-19 03:25N 36°41' E 013°41'7 8.7
2014-Jul-19 02:33N 36°39' E 013°50'8 8.4
2014-Jul-19 01:33N 36°36' E 014°00'8 8.2
2014-Jul-19 00:33N 36°34' E 014°10'8 8.1
2014-Jul-18 23:33N 36°31' E 014°19'8 8.1
2014-Jul-18 22:32N 36°30' E 014°29'8 8.1
2014-Jul-18 21:33N 36°28' E 014°39'7 7.5
2014-Jul-18 20:33N 36°24' E 014°47'8 7.9
2014-Jul-18 19:30N 36°24' E 014°58'8 8.3
2014-Jul-18 18:33N 36°24' E 015°07'  
2014-Jul-16 09:15N 37°42' E 023°41'6 9.3
2014-Jul-16 08:33N 37°48' E 023°37'6 5.8
2014-Jul-16 07:33N 37°52' E 023°32'0 0.1
2014-Jul-16 06:33N 37°52' E 023°32'0 0.0
2014-Jul-16 05:33N 37°52' E 023°32'0 0.0
2014-Jul-16 04:33N 37°52' E 023°32'0 0.0
2014-Jul-16 03:33N 37°52' E 023°32'0 0.0
2014-Jul-16 02:33N 37°52' E 023°32'0 0.0
2014-Jul-16 01:33N 37°52' E 023°32'0 0.0
2014-Jul-16 00:33N 37°52' E 023°32'0 0.0
2014-Jul-15 23:33N 37°52' E 023°32'0 0.0
2014-Jul-15 22:33N 37°52' E 023°32'0 0.1
2014-Jul-15 21:33N 37°52' E 023°32'6 5.6
2014-Jul-15 20:33N 37°51' E 023°39'9 8.5
2014-Jul-15 19:33N 37°43' E 023°44'  

Dump ship's entire track history